sensor_id;sensor_type;location;lat;lon;timestamp;pressure;altitude;pressure_sealevel;temperature;humidity
51261;BME280;61705;46.228;24.812;2023-04-03T00:01:46;96884.13;;;7.02;96.52
51261;BME280;61705;46.228;24.812;2023-04-03T00:04:13;96881.53;;;7.00;96.18
51261;BME280;61705;46.228;24.812;2023-04-03T00:06:40;96879.13;;;6.96;96.26
51261;BME280;61705;46.228;24.812;2023-04-03T00:09:06;96875.00;;;6.90;96.22
51261;BME280;61705;46.228;24.812;2023-04-03T00:11:35;96871.50;;;6.89;96.44
51261;BME280;61705;46.228;24.812;2023-04-03T00:14:02;96867.25;;;6.87;96.32
51261;BME280;61705;46.228;24.812;2023-04-03T00:16:28;96871.59;;;6.88;96.59
51261;BME280;61705;46.228;24.812;2023-04-03T00:18:58;96868.84;;;6.91;96.38
51261;BME280;61705;46.228;24.812;2023-04-03T00:21:24;96871.72;;;6.85;96.60
51261;BME280;61705;46.228;24.812;2023-04-03T00:23:54;96874.34;;;6.85;96.75
51261;BME280;61705;46.228;24.812;2023-04-03T00:26:20;96872.50;;;6.87;96.90
51261;BME280;61705;46.228;24.812;2023-04-03T00:28:47;96876.97;;;6.85;96.66
51261;BME280;61705;46.228;24.812;2023-04-03T00:31:14;96877.19;;;6.80;96.82
51261;BME280;61705;46.228;24.812;2023-04-03T00:33:42;96881.84;;;6.74;96.93
51261;BME280;61705;46.228;24.812;2023-04-03T00:36:09;96874.22;;;6.68;97.02
51261;BME280;61705;46.228;24.812;2023-04-03T00:38:36;96881.38;;;6.64;96.99
51261;BME280;61705;46.228;24.812;2023-04-03T00:41:03;96883.88;;;6.67;97.10
51261;BME280;61705;46.228;24.812;2023-04-03T00:43:30;96876.06;;;6.65;97.00
51261;BME280;61705;46.228;24.812;2023-04-03T00:45:57;96877.97;;;6.62;96.96
51261;BME280;61705;46.228;24.812;2023-04-03T00:48:44;96874.28;;;6.66;96.75
51261;BME280;61705;46.228;24.812;2023-04-03T00:51:13;96879.47;;;6.68;96.65
51261;BME280;61705;46.228;24.812;2023-04-03T00:53:44;96877.56;;;6.71;96.68
51261;BME280;61705;46.228;24.812;2023-04-03T00:56:17;96880.38;;;6.67;96.46
51261;BME280;61705;46.228;24.812;2023-04-03T00:58:53;96877.84;;;6.65;96.68
51261;BME280;61705;46.228;24.812;2023-04-03T01:01:25;96879.75;;;6.61;96.54
51261;BME280;61705;46.228;24.812;2023-04-03T01:03:52;96878.09;;;6.59;96.81
51261;BME280;61705;46.228;24.812;2023-04-03T01:06:26;96885.06;;;6.60;96.83
51261;BME280;61705;46.228;24.812;2023-04-03T01:09:01;96888.41;;;6.63;97.15
51261;BME280;61705;46.228;24.812;2023-04-03T01:11:28;96879.03;;;6.58;96.98
51261;BME280;61705;46.228;24.812;2023-04-03T01:13:56;96876.44;;;6.56;97.13
51261;BME280;61705;46.228;24.812;2023-04-03T01:16:35;96877.38;;;6.55;97.36
51261;BME280;61705;46.228;24.812;2023-04-03T01:19:01;96875.91;;;6.48;97.50
51261;BME280;61705;46.228;24.812;2023-04-03T01:24:34;96883.78;;;6.48;97.87
51261;BME280;61705;46.228;24.812;2023-04-03T01:27:04;96878.22;;;6.56;97.80
51261;BME280;61705;46.228;24.812;2023-04-03T01:29:35;96883.66;;;6.51;97.98
51261;BME280;61705;46.228;24.812;2023-04-03T01:32:04;96883.59;;;6.53;97.69
51261;BME280;61705;46.228;24.812;2023-04-03T01:34:34;96885.19;;;6.57;97.75
51261;BME280;61705;46.228;24.812;2023-04-03T01:37:00;96887.88;;;6.55;97.54
51261;BME280;61705;46.228;24.812;2023-04-03T01:39:27;96883.47;;;6.56;97.35
51261;BME280;61705;46.228;24.812;2023-04-03T01:41:53;96883.47;;;6.56;97.44
51261;BME280;61705;46.228;24.812;2023-04-03T01:44:23;96884.31;;;6.56;97.26
51261;BME280;61705;46.228;24.812;2023-04-03T01:46:50;96879.88;;;6.58;97.35
51261;BME280;61705;46.228;24.812;2023-04-03T01:49:17;96880.66;;;6.60;97.20
51261;BME280;61705;46.228;24.812;2023-04-03T01:51:43;96888.53;;;6.60;97.38
51261;BME280;61705;46.228;24.812;2023-04-03T01:54:10;96886.56;;;6.65;97.37
51261;BME280;61705;46.228;24.812;2023-04-03T01:56:37;96885.19;;;6.57;97.38
51261;BME280;61705;46.228;24.812;2023-04-03T01:59:05;96893.84;;;6.59;97.73
51261;BME280;61705;46.228;24.812;2023-04-03T02:01:34;96886.94;;;6.56;97.78
51261;BME280;61705;46.228;24.812;2023-04-03T02:04:01;96889.25;;;6.64;97.71
51261;BME280;61705;46.228;24.812;2023-04-03T02:06:28;96899.03;;;6.60;97.75
51261;BME280;61705;46.228;24.812;2023-04-03T02:08:54;96895.03;;;6.52;97.92
51261;BME280;61705;46.228;24.812;2023-04-03T02:11:24;96895.88;;;6.52;98.00
51261;BME280;61705;46.228;24.812;2023-04-03T02:13:53;96892.28;;;6.55;97.84
51261;BME280;61705;46.228;24.812;2023-04-03T02:16:28;96897.25;;;6.61;97.81
51261;BME280;61705;46.228;24.812;2023-04-03T02:18:55;96897.25;;;6.61;97.84
51261;BME280;61705;46.228;24.812;2023-04-03T02:21:24;96902.44;;;6.62;97.59
51261;BME280;61705;46.228;24.812;2023-04-03T02:23:51;96901.59;;;6.62;97.23
51261;BME280;61705;46.228;24.812;2023-04-03T02:26:17;96898.91;;;6.63;97.00
51261;BME280;61705;46.228;24.812;2023-04-03T02:28:47;96903.97;;;6.68;96.97
51261;BME280;61705;46.228;24.812;2023-04-03T02:31:16;96898.75;;;6.67;96.85
51261;BME280;61705;46.228;24.812;2023-04-03T02:33:43;96898.97;;;6.62;96.79
51261;BME280;61705;46.228;24.812;2023-04-03T02:36:10;96908.53;;;6.63;96.77
51261;BME280;61705;46.228;24.812;2023-04-03T02:38:37;96902.38;;;6.64;96.90
51261;BME280;61705;46.228;24.812;2023-04-03T02:41:04;96907.69;;;6.62;96.79
51261;BME280;61705;46.228;24.812;2023-04-03T02:43:31;96907.56;;;6.65;96.73
51261;BME280;61705;46.228;24.812;2023-04-03T02:45:58;96908.38;;;6.68;96.69
51261;BME280;61705;46.228;24.812;2023-04-03T02:48:28;96902.44;;;6.62;96.60
51261;BME280;61705;46.228;24.812;2023-04-03T02:50:54;96903.44;;;6.60;96.70
51261;BME280;61705;46.228;24.812;2023-04-03T02:53:21;96909.47;;;6.62;96.83
51261;BME280;61705;46.228;24.812;2023-04-03T02:55:48;96915.50;;;6.64;96.71
51261;BME280;61705;46.228;24.812;2023-04-03T02:58:15;96906.72;;;6.65;96.80
51261;BME280;61705;46.228;24.812;2023-04-03T03:00:51;96912.91;;;6.64;96.98
51261;BME280;61705;46.228;24.812;2023-04-03T03:03:22;96908.50;;;6.64;96.73
51261;BME280;61705;46.228;24.812;2023-04-03T03:05:49;96914.66;;;6.63;96.76
51261;BME280;61705;46.228;24.812;2023-04-03T03:08:16;96910.91;;;6.69;96.80
51261;BME280;61705;46.228;24.812;2023-04-03T03:10:46;96913.53;;;6.69;97.01
51261;BME280;61705;46.228;24.812;2023-04-03T03:13:14;96913.06;;;6.59;97.13
51261;BME280;61705;46.228;24.812;2023-04-03T03:15:41;96914.72;;;6.62;97.24
51261;BME280;61705;46.228;24.812;2023-04-03T03:18:07;96911.13;;;6.64;97.19
51261;BME280;61705;46.228;24.812;2023-04-03T03:20:34;96916.28;;;6.66;97.07
51261;BME280;61705;46.228;24.812;2023-04-03T03:23:01;96915.44;;;6.65;97.22
51261;BME280;61705;46.228;24.812;2023-04-03T03:25:30;96917.28;;;6.63;97.05
51261;BME280;61705;46.228;24.812;2023-04-03T03:28:01;96929.28;;;6.69;96.95
51261;BME280;61705;46.228;24.812;2023-04-03T03:30:28;96921.50;;;6.68;97.13
51261;BME280;61705;46.228;24.812;2023-04-03T03:32:54;96926.00;;;6.64;97.21
51261;BME280;61705;46.228;24.812;2023-04-03T03:35:27;96931.06;;;6.69;97.14
51261;BME280;61705;46.228;24.812;2023-04-03T03:37:53;96921.53;;;6.66;97.10
51261;BME280;61705;46.228;24.812;2023-04-03T03:40:20;96926.00;;;6.64;97.08
51261;BME280;61705;46.228;24.812;2023-04-03T03:42:49;96928.56;;;6.65;97.28
51261;BME280;61705;46.228;24.812;2023-04-03T03:45:21;96934.06;;;6.59;97.11
51261;BME280;61705;46.228;24.812;2023-04-03T03:47:48;96936.69;;;6.59;97.32
51261;BME280;61705;46.228;24.812;2023-04-03T03:50:14;96932.25;;;6.61;97.32
51261;BME280;61705;46.228;24.812;2023-04-03T03:52:42;96929.63;;;6.61;97.21
51261;BME280;61705;46.228;24.812;2023-04-03T03:55:09;96932.88;;;6.67;97.19
51261;BME280;61705;46.228;24.812;2023-04-03T03:57:35;96927.84;;;6.62;97.28
51261;BME280;61705;46.228;24.812;2023-04-03T04:00:02;96925.00;;;6.67;97.12
51261;BME280;61705;46.228;24.812;2023-04-03T04:02:30;96940.84;;;6.65;97.38
51261;BME280;61705;46.228;24.812;2023-04-03T04:04:57;96936.44;;;6.65;97.18
51261;BME280;61705;46.228;24.812;2023-04-03T04:07:27;96931.41;;;6.61;97.20
51261;BME280;61705;46.228;24.812;2023-04-03T04:09:55;96929.41;;;6.66;97.20
51261;BME280;61705;46.228;24.812;2023-04-03T04:12:22;96930.47;;;6.62;97.32
51261;BME280;61705;46.228;24.812;2023-04-03T04:14:50;96932.31;;;6.60;97.32
51261;BME280;61705;46.228;24.812;2023-04-03T04:17:17;96925.28;;;6.60;97.54
51261;BME280;61705;46.228;24.812;2023-04-03T04:19:45;96927.84;;;6.62;97.63
51261;BME280;61705;46.228;24.812;2023-04-03T04:22:11;96933.94;;;6.62;97.79
51261;BME280;61705;46.228;24.812;2023-04-03T04:24:38;96929.63;;;6.61;97.80
51261;BME280;61705;46.228;24.812;2023-04-03T04:27:05;96933.03;;;6.63;97.63
51261;BME280;61705;46.228;24.812;2023-04-03T04:29:31;96942.41;;;6.69;97.75
51261;BME280;61705;46.228;24.812;2023-04-03T04:32:03;96935.72;;;6.82;97.53
51261;BME280;61705;46.228;24.812;2023-04-03T04:34:30;96938.56;;;6.78;97.31
51261;BME280;61705;46.228;24.812;2023-04-03T04:36:59;96933.34;;;6.76;97.47
51261;BME280;61705;46.228;24.812;2023-04-03T04:39:25;96937.38;;;6.85;97.25
51261;BME280;61705;46.228;24.812;2023-04-03T04:41:54;96932.19;;;6.83;97.10
51261;BME280;61705;46.228;24.812;2023-04-03T04:44:20;96937.03;;;6.93;97.36
51261;BME280;61705;46.228;24.812;2023-04-03T04:46:47;96933.50;;;6.94;97.27
51261;BME280;61705;46.228;24.812;2023-04-03T04:49:24;96941.31;;;6.95;97.00
51261;BME280;61705;46.228;24.812;2023-04-03T04:51:53;96944.88;;;6.94;97.07
51261;BME280;61705;46.228;24.812;2023-04-03T04:54:20;96944.59;;;7.00;96.82
51261;BME280;61705;46.228;24.812;2023-04-03T04:56:54;96949.72;;;7.03;96.70
51261;BME280;61705;46.228;24.812;2023-04-03T04:59:25;96955.69;;;7.07;96.53
51261;BME280;61705;46.228;24.812;2023-04-03T05:01:52;96950.25;;;7.11;96.71
51261;BME280;61705;46.228;24.812;2023-04-03T05:04:21;96951.28;;;7.07;96.84
51261;BME280;61705;46.228;24.812;2023-04-03T05:06:50;96956.63;;;7.06;96.71
51261;BME280;61705;46.228;24.812;2023-04-03T05:09:23;96956.75;;;7.03;96.75
51261;BME280;61705;46.228;24.812;2023-04-03T05:11:53;96960.75;;;7.11;96.72
51261;BME280;61705;46.228;24.812;2023-04-03T05:14:22;96958.19;;;7.10;96.64
51261;BME280;61705;46.228;24.812;2023-04-03T05:16:49;96959.13;;;7.09;96.63
51261;BME280;61705;46.228;24.812;2023-04-03T05:19:20;96957.47;;;7.06;96.86
51261;BME280;61705;46.228;24.812;2023-04-03T05:21:47;96957.47;;;7.06;96.85
51261;BME280;61705;46.228;24.812;2023-04-03T05:24:16;96960.94;;;7.07;96.84
51261;BME280;61705;46.228;24.812;2023-04-03T05:26:46;96959.25;;;7.06;97.03
51261;BME280;61705;46.228;24.812;2023-04-03T05:29:12;96956.50;;;7.09;97.13
51261;BME280;61705;46.228;24.812;2023-04-03T05:31:41;96952.81;;;7.13;96.98
51261;BME280;61705;46.228;24.812;2023-04-03T05:34:09;96960.56;;;7.16;97.05
51261;BME280;61705;46.228;24.812;2023-04-03T05:36:38;96955.22;;;7.18;96.86
51261;BME280;61705;46.228;24.812;2023-04-03T05:39:08;96954.25;;;7.20;96.95
51261;BME280;61705;46.228;24.812;2023-04-03T05:41:38;96957.66;;;7.22;96.93
51261;BME280;61705;46.228;24.812;2023-04-03T05:44:06;96961.28;;;7.20;96.86
51261;BME280;61705;46.228;24.812;2023-04-03T05:46:34;96961.28;;;7.20;96.88
51261;BME280;61705;46.228;24.812;2023-04-03T05:49:01;96959.38;;;7.23;97.03
51261;BME280;61705;46.228;24.812;2023-04-03T05:51:33;96961.00;;;7.26;96.83
51261;BME280;61705;46.228;24.812;2023-04-03T05:56:46;96961.94;;;7.25;96.84
51261;BME280;61705;46.228;24.812;2023-04-03T05:59:13;96970.81;;;7.22;96.58
51261;BME280;61705;46.228;24.812;2023-04-03T06:01:40;96972.50;;;7.23;96.79
51261;BME280;61705;46.228;24.812;2023-04-03T06:04:06;96960.53;;;7.36;96.40
51261;BME280;61705;46.228;24.812;2023-04-03T06:09:14;96970.63;;;7.66;95.82
51261;BME280;61705;46.228;24.812;2023-04-03T06:11:41;96976.63;;;7.68;95.31
51261;BME280;61705;46.228;24.812;2023-04-03T06:14:10;96975.78;;;7.68;95.07
51261;BME280;61705;46.228;24.812;2023-04-03T06:16:37;96979.00;;;7.74;94.89
51261;BME280;61705;46.228;24.812;2023-04-03T06:19:07;96980.78;;;7.74;94.54
51261;BME280;61705;46.228;24.812;2023-04-03T06:21:34;96982.59;;;7.72;94.23
51261;BME280;61705;46.228;24.812;2023-04-03T06:24:05;96993.00;;;7.75;93.97
51261;BME280;61705;46.228;24.812;2023-04-03T06:26:48;96991.34;;;7.72;93.64
51261;BME280;61705;46.228;24.812;2023-04-03T06:29:17;96987.47;;;7.81;93.18
51261;BME280;61705;46.228;24.812;2023-04-03T06:31:44;96988.75;;;7.91;92.39
51261;BME280;61705;46.228;24.812;2023-04-03T06:34:18;96990.31;;;7.95;91.83
51261;BME280;61705;46.228;24.812;2023-04-03T06:36:48;96988.53;;;7.96;91.22
51261;BME280;61705;46.228;24.812;2023-04-03T06:39:20;96985.91;;;7.96;90.51
51261;BME280;61705;46.228;24.812;2023-04-03T06:41:49;96989.19;;;8.01;90.27
51261;BME280;61705;46.228;24.812;2023-04-03T06:44:18;96998.41;;;8.10;90.20
51261;BME280;61705;46.228;24.812;2023-04-03T06:46:46;96996.84;;;8.05;89.82
51261;BME280;61705;46.228;24.812;2023-04-03T06:49:13;96996.38;;;7.97;89.52
51261;BME280;61705;46.228;24.812;2023-04-03T06:51:42;96999.63;;;8.02;89.00
51261;BME280;61705;46.228;24.812;2023-04-03T06:54:09;96996.00;;;8.05;89.02
51261;BME280;61705;46.228;24.812;2023-04-03T06:56:38;97002.34;;;8.01;89.12
51261;BME280;61705;46.228;24.812;2023-04-03T06:59:04;97002.88;;;7.89;89.18
51261;BME280;61705;46.228;24.812;2023-04-03T07:01:45;97010.88;;;7.87;88.94
51261;BME280;61705;46.228;24.812;2023-04-03T07:04:12;97012.19;;;7.96;88.90
51261;BME280;61705;46.228;24.812;2023-04-03T07:06:41;97026.72;;;8.04;88.92
51261;BME280;61705;46.228;24.812;2023-04-03T07:09:09;97028.78;;;8.17;88.69
51261;BME280;61705;46.228;24.812;2023-04-03T07:11:37;97024.88;;;8.25;88.36
51261;BME280;61705;46.228;24.812;2023-04-03T07:14:03;97026.75;;;8.42;87.77
51261;BME280;61705;46.228;24.812;2023-04-03T07:16:30;97031.34;;;8.56;87.34
51261;BME280;61705;46.228;24.812;2023-04-03T07:18:57;97027.88;;;8.56;86.85
51261;BME280;61705;46.228;24.812;2023-04-03T07:21:24;97032.06;;;8.60;86.13
51261;BME280;61705;46.228;24.812;2023-04-03T07:23:50;97034.97;;;8.72;85.75
51261;BME280;61705;46.228;24.812;2023-04-03T07:26:17;97039.91;;;8.78;85.94
51261;BME280;61705;46.228;24.812;2023-04-03T07:28:51;97053.97;;;8.79;85.39
51261;BME280;61705;46.228;24.812;2023-04-03T07:31:18;97046.53;;;8.87;84.83
51261;BME280;61705;46.228;24.812;2023-04-03T07:33:45;97042.09;;;8.88;84.67
51261;BME280;61705;46.228;24.812;2023-04-03T07:36:14;97044.06;;;9.01;83.96
51261;BME280;61705;46.228;24.812;2023-04-03T07:38:42;97057.47;;;8.97;83.32
51261;BME280;61705;46.228;24.812;2023-04-03T07:41:15;97055.47;;;9.02;83.18
51261;BME280;61705;46.228;24.812;2023-04-03T07:43:42;97051.81;;;9.05;83.11
51261;BME280;61705;46.228;24.812;2023-04-03T07:46:09;97061.81;;;9.15;82.97
51261;BME280;61705;46.228;24.812;2023-04-03T07:48:37;97062.16;;;9.27;82.99
51261;BME280;61705;46.228;24.812;2023-04-03T07:51:04;97069.53;;;9.20;82.73
51261;BME280;61705;46.228;24.812;2023-04-03T07:53:31;97064.63;;;9.12;82.49
51261;BME280;61705;46.228;24.812;2023-04-03T07:56:02;97062.06;;;9.11;82.07
51261;BME280;61705;46.228;24.812;2023-04-03T07:58:32;97064.56;;;9.14;82.35
51261;BME280;61705;46.228;24.812;2023-04-03T08:00:59;97066.50;;;9.28;82.49
51261;BME280;61705;46.228;24.812;2023-04-03T08:03:26;97069.16;;;9.45;82.17
51261;BME280;61705;46.228;24.812;2023-04-03T08:05:54;97073.72;;;9.41;81.74
51261;BME280;61705;46.228;24.812;2023-04-03T08:08:25;97078.06;;;9.42;82.27
51261;BME280;61705;46.228;24.812;2023-04-03T08:10:52;97076.50;;;9.38;82.36
51261;BME280;61705;46.228;24.812;2023-04-03T08:13:28;97088.84;;;9.38;81.96
51261;BME280;61705;46.228;24.812;2023-04-03T08:15:56;97089.16;;;9.32;81.85
51261;BME280;61705;46.228;24.812;2023-04-03T08:18:24;97092.06;;;9.25;81.93
51261;BME280;61705;46.228;24.812;2023-04-03T08:20:51;97089.22;;;9.13;81.67
51261;BME280;61705;46.228;24.812;2023-04-03T08:23:21;97091.63;;;9.17;81.85
51261;BME280;61705;46.228;24.812;2023-04-03T08:25:51;97094.94;;;9.21;81.81
51261;BME280;61705;46.228;24.812;2023-04-03T08:28:17;97085.56;;;9.33;81.58
51261;BME280;61705;46.228;24.812;2023-04-03T08:30:48;97090.00;;;9.32;81.40
51261;BME280;61705;46.228;24.812;2023-04-03T08:33:18;97094.72;;;9.43;81.49
51261;BME280;61705;46.228;24.812;2023-04-03T08:35:47;97090.69;;;9.53;81.08
51261;BME280;61705;46.228;24.812;2023-04-03T08:38:15;97099.53;;;9.69;80.61
51261;BME280;61705;46.228;24.812;2023-04-03T08:49:21;97089.22;;;10.49;78.33
51261;BME280;61705;46.228;24.812;2023-04-03T08:51:51;97087.72;;;10.60;78.68
51261;BME280;61705;46.228;24.812;2023-04-03T08:54:25;97082.84;;;10.84;78.23
51261;BME280;61705;46.228;24.812;2023-04-03T08:56:55;97081.91;;;11.01;77.65
51261;BME280;61705;46.228;24.812;2023-04-03T08:59:26;97081.63;;;10.90;77.06
51261;BME280;61705;46.228;24.812;2023-04-03T09:01:54;97088.03;;;10.86;77.09
51261;BME280;61705;46.228;24.812;2023-04-03T09:04:23;97080.88;;;10.88;76.29
51261;BME280;61705;46.228;24.812;2023-04-03T09:07:32;97083.69;;;10.85;75.39
51261;BME280;61705;46.228;24.812;2023-04-03T09:09:53;97082.91;;;10.99;74.64
51261;BME280;61705;46.228;24.812;2023-04-03T09:12:38;97088.59;;;11.07;74.33
51261;BME280;61705;46.228;24.812;2023-04-03T09:15:22;97077.41;;;11.18;73.87
51261;BME280;61705;46.228;24.812;2023-04-03T09:26:06;97090.97;;;11.27;72.34
51261;BME280;61705;46.228;24.812;2023-04-03T09:28:39;97082.84;;;11.30;71.95
51261;BME280;61705;46.228;24.812;2023-04-03T09:31:20;97090.28;;;11.24;72.00
51261;BME280;61705;46.228;24.812;2023-04-03T09:33:50;97096.47;;;11.08;72.04
51261;BME280;61705;46.228;24.812;2023-04-03T09:39:07;97084.81;;;11.27;71.57
51261;BME280;61705;46.228;24.812;2023-04-03T09:41:38;97074.59;;;11.51;71.30
51261;BME280;61705;46.228;24.812;2023-04-03T09:44:22;97076.63;;;11.61;70.65
51261;BME280;61705;46.228;24.812;2023-04-03T09:46:54;97084.88;;;11.71;70.41
51261;BME280;61705;46.228;24.812;2023-04-03T09:49:20;97071.16;;;11.79;70.03
51261;BME280;61705;46.228;24.812;2023-04-03T09:51:47;97078.91;;;11.68;69.66
51261;BME280;61705;46.228;24.812;2023-04-03T09:54:31;97083.00;;;11.73;70.15
51261;BME280;61705;46.228;24.812;2023-04-03T09:57:01;97080.25;;;11.75;70.03
51261;BME280;61705;46.228;24.812;2023-04-03T09:59:30;97080.28;;;11.89;70.17
51261;BME280;61705;46.228;24.812;2023-04-03T10:02:02;97074.72;;;11.94;69.98
51261;BME280;61705;46.228;24.812;2023-04-03T10:04:38;97082.09;;;11.89;68.83
51261;BME280;61705;46.228;24.812;2023-04-03T10:10:00;97066.81;;;11.63;68.12
51261;BME280;61705;46.228;24.812;2023-04-03T10:12:33;97079.16;;;11.49;69.03
51261;BME280;61705;46.228;24.812;2023-04-03T10:15:00;97088.06;;;11.32;69.59
51261;BME280;61705;46.228;24.812;2023-04-03T10:17:33;97078.78;;;11.25;70.58
51261;BME280;61705;46.228;24.812;2023-04-03T10:22:33;97080.53;;;11.70;70.09
51261;BME280;61705;46.228;24.812;2023-04-03T10:44:05;97049.00;;;12.39;67.25
51261;BME280;61705;46.228;24.812;2023-04-03T10:51:48;97037.84;;;12.75;65.64
51261;BME280;61705;46.228;24.812;2023-04-03T10:56:57;97039.75;;;12.73;66.22
51261;BME280;61705;46.228;24.812;2023-04-03T10:59:43;97036.56;;;12.53;67.19
51261;BME280;61705;46.228;24.812;2023-04-03T11:05:52;97029.31;;;12.28;66.21
51261;BME280;61705;46.228;24.812;2023-04-03T11:07:50;97027.81;;;12.24;66.58
51261;BME280;61705;46.228;24.812;2023-04-03T11:15:41;97023.00;;;12.31;64.76
51261;BME280;61705;46.228;24.812;2023-04-03T11:21:07;97013.81;;;12.22;64.90
51261;BME280;61705;46.228;24.812;2023-04-03T11:23:39;97023.09;;;12.15;64.81
51261;BME280;61705;46.228;24.812;2023-04-03T11:26:23;97020.63;;;12.12;64.67
51261;BME280;61705;46.228;24.812;2023-04-03T11:28:52;97013.72;;;12.38;64.73
51261;BME280;61705;46.228;24.812;2023-04-03T11:36:25;97013.31;;;12.30;64.69
51261;BME280;61705;46.228;24.812;2023-04-03T11:39:07;97012.78;;;12.11;64.53
51261;BME280;61705;46.228;24.812;2023-04-03T11:41:36;97009.28;;;11.96;64.90
51261;BME280;61705;46.228;24.812;2023-04-03T11:44:13;97000.00;;;11.89;65.26
51261;BME280;61705;46.228;24.812;2023-04-03T11:46:59;96996.91;;;12.11;64.55
51261;BME280;61705;46.228;24.812;2023-04-03T11:52:53;96994.28;;;12.52;63.08
51261;BME280;61705;46.228;24.812;2023-04-03T12:00:46;96989.91;;;12.78;62.57
51261;BME280;61705;46.228;24.812;2023-04-03T12:11:28;96982.59;;;13.48;60.48
51261;BME280;61705;46.228;24.812;2023-04-03T12:16:49;96965.06;;;13.59;58.24
51261;BME280;61705;46.228;24.812;2023-04-03T12:22:09;96955.25;;;14.10;57.47
51261;BME280;61705;46.228;24.812;2023-04-03T12:24:39;96955.03;;;14.13;57.18
51261;BME280;61705;46.228;24.812;2023-04-03T12:27:14;96953.38;;;13.99;57.82
51261;BME280;61705;46.228;24.812;2023-04-03T12:29:46;96950.53;;;13.51;58.57
51261;BME280;61705;46.228;24.812;2023-04-03T12:42:55;96959.66;;;12.68;59.77
51261;BME280;61705;46.228;24.812;2023-04-03T12:48:29;96954.81;;;13.14;58.88
51261;BME280;61705;46.228;24.812;2023-04-03T12:50:57;96950.84;;;13.34;58.21
51261;BME280;61705;46.228;24.812;2023-04-03T12:53:42;96943.19;;;13.30;57.78
51261;BME280;61705;46.228;24.812;2023-04-03T12:56:35;96937.47;;;13.61;57.59
51261;BME280;61705;46.228;24.812;2023-04-03T13:01:43;96933.94;;;13.99;56.54
51261;BME280;61705;46.228;24.812;2023-04-03T13:04:12;96926.50;;;13.91;56.57
51261;BME280;61705;46.228;24.812;2023-04-03T13:06:43;96935.63;;;13.87;56.62
51261;BME280;61705;46.228;24.812;2023-04-03T13:09:23;96928.25;;;13.54;56.16
51261;BME280;61705;46.228;24.812;2023-04-03T13:11:53;96921.66;;;13.34;56.10
51261;BME280;61705;46.228;24.812;2023-04-03T13:14:26;96919.66;;;13.50;56.06
51261;BME280;61705;46.228;24.812;2023-04-03T13:16:59;96920.63;;;13.22;55.14
51261;BME280;61705;46.228;24.812;2023-04-03T13:19:26;96919.00;;;13.34;55.90
51261;BME280;61705;46.228;24.812;2023-04-03T13:21:59;96918.44;;;13.16;55.84
51261;BME280;61705;46.228;24.812;2023-04-03T13:24:30;96923.34;;;13.35;57.04
51261;BME280;61705;46.228;24.812;2023-04-03T13:26:59;96923.88;;;13.66;56.06
51261;BME280;61705;46.228;24.812;2023-04-03T13:29:27;96919.59;;;13.89;55.76
51261;BME280;61705;46.228;24.812;2023-04-03T13:31:57;96916.53;;;13.57;57.09
51261;BME280;61705;46.228;24.812;2023-04-03T13:34:25;96920.31;;;13.91;56.38
51261;BME280;61705;46.228;24.812;2023-04-03T13:39:30;96909.25;;;14.71;53.79
51261;BME280;61705;46.228;24.812;2023-04-03T13:41:58;96902.53;;;15.24;52.46
51261;BME280;61705;46.228;24.812;2023-04-03T13:44:28;96906.00;;;15.02;51.39
51261;BME280;61705;46.228;24.812;2023-04-03T13:47:00;96909.97;;;14.73;52.08
51261;BME280;61705;46.228;24.812;2023-04-03T13:49:43;96903.47;;;14.53;52.68
51261;BME280;61705;46.228;24.812;2023-04-03T13:52:27;96912.69;;;13.99;54.44
51261;BME280;61705;46.228;24.812;2023-04-03T13:54:58;96917.25;;;13.97;54.93
51261;BME280;61705;46.228;24.812;2023-04-03T13:57:33;96916.09;;;14.25;54.19
51261;BME280;61705;46.228;24.812;2023-04-03T14:00:00;96917.88;;;14.37;54.51
51261;BME280;61705;46.228;24.812;2023-04-03T14:02:48;96913.41;;;14.51;54.12
51261;BME280;61705;46.228;24.812;2023-04-03T14:05:17;96912.44;;;14.87;53.99
51261;BME280;61705;46.228;24.812;2023-04-03T14:07:47;96912.97;;;14.44;54.34
51261;BME280;61705;46.228;24.812;2023-04-03T14:10:14;96911.97;;;14.21;52.89
51261;BME280;61705;46.228;24.812;2023-04-03T14:12:40;96904.66;;;14.12;53.18
51261;BME280;61705;46.228;24.812;2023-04-03T14:15:15;96912.28;;;13.80;53.74
51261;BME280;61705;46.228;24.812;2023-04-03T14:17:48;96912.25;;;14.05;53.10
51261;BME280;61705;46.228;24.812;2023-04-03T14:20:16;96919.75;;;13.62;53.37
51261;BME280;61705;46.228;24.812;2023-04-03T14:22:46;96915.06;;;13.52;53.04
51261;BME280;61705;46.228;24.812;2023-04-03T14:25:13;96907.56;;;14.09;53.01
51261;BME280;61705;46.228;24.812;2023-04-03T14:27:41;96898.94;;;14.66;51.43
51261;BME280;61705;46.228;24.812;2023-04-03T14:30:12;96898.78;;;14.80;51.33
51261;BME280;61705;46.228;24.812;2023-04-03T14:32:40;96903.19;;;14.68;52.73
51261;BME280;61705;46.228;24.812;2023-04-03T14:35:07;96909.56;;;14.42;53.35
51261;BME280;61705;46.228;24.812;2023-04-03T14:37:37;96899.78;;;14.66;52.93
51261;BME280;61705;46.228;24.812;2023-04-03T14:40:07;96900.78;;;14.29;52.64
51261;BME280;61705;46.228;24.812;2023-04-03T14:42:35;96906.22;;;14.64;52.66
51261;BME280;61705;46.228;24.812;2023-04-03T14:45:08;96901.59;;;15.25;50.90
51261;BME280;61705;46.228;24.812;2023-04-03T14:47:36;96902.22;;;15.51;50.64
51261;BME280;61705;46.228;24.812;2023-04-03T14:50:06;96908.56;;;15.73;50.36
51261;BME280;61705;46.228;24.812;2023-04-03T14:52:34;96916.22;;;15.31;50.70
51261;BME280;61705;46.228;24.812;2023-04-03T14:55:06;96913.53;;;15.20;51.02
51261;BME280;61705;46.228;24.812;2023-04-03T14:57:35;96914.69;;;15.51;49.85
51261;BME280;61705;46.228;24.812;2023-04-03T15:00:03;96909.75;;;15.69;49.05
51261;BME280;61705;46.228;24.812;2023-04-03T15:02:31;96912.75;;;15.53;49.09
51261;BME280;61705;46.228;24.812;2023-04-03T15:05:00;96910.09;;;16.20;47.82
51261;BME280;61705;46.228;24.812;2023-04-03T15:07:30;96921.16;;;15.71;48.20
51261;BME280;61705;46.228;24.812;2023-04-03T15:10:01;96918.78;;;15.55;48.89